sensor_id;sensor_type;location;lat;lon;timestamp;pressure;altitude;pressure_sealevel;temperature;humidity
52975;BME280;38839;45.186;5.720;2023-05-23T00:01:34;99063.06;;;17.78;nan
52975;BME280;38839;45.186;5.720;2023-05-23T00:04:03;99064.97;;;17.73;nan
52975;BME280;38839;45.186;5.720;2023-05-23T00:06:29;99060.47;;;17.77;nan
52975;BME280;38839;45.186;5.720;2023-05-23T00:08:55;99061.38;;;17.76;nan
52975;BME280;38839;45.186;5.720;2023-05-23T00:11:21;99062.16;;;17.78;nan
52975;BME280;38839;45.186;5.720;2023-05-23T00:13:54;99069.06;;;17.82;nan
52975;BME280;38839;45.186;5.720;2023-05-23T00:16:20;99062.28;;;17.75;nan
52975;BME280;38839;45.186;5.720;2023-05-23T00:18:45;99044.94;;;17.67;nan
52975;BME280;38839;45.186;5.720;2023-05-23T00:21:11;99047.78;;;17.61;nan
52975;BME280;38839;45.186;5.720;2023-05-23T00:23:40;99050.38;;;17.63;nan
52975;BME280;38839;45.186;5.720;2023-05-23T00:26:09;99047.88;;;17.58;nan
52975;BME280;38839;45.186;5.720;2023-05-23T00:28:36;99051.31;;;17.62;nan
52975;BME280;38839;45.186;5.720;2023-05-23T00:31:01;99049.59;;;17.59;nan
52975;BME280;38839;45.186;5.720;2023-05-23T00:33:27;99042.81;;;17.52;nan
52975;BME280;38839;45.186;5.720;2023-05-23T00:35:54;99036.81;;;17.47;nan
52975;BME280;38839;45.186;5.720;2023-05-23T00:38:19;99042.09;;;17.47;nan
52975;BME280;38839;45.186;5.720;2023-05-23T00:40:45;99041.28;;;17.45;nan
52975;BME280;38839;45.186;5.720;2023-05-23T00:43:10;99038.13;;;17.35;nan
52975;BME280;38839;45.186;5.720;2023-05-23T00:45:36;99037.41;;;17.28;nan
52975;BME280;38839;45.186;5.720;2023-05-23T00:48:02;99027.66;;;17.32;nan
52975;BME280;38839;45.186;5.720;2023-05-23T00:50:28;99036.53;;;17.29;nan
52975;BME280;38839;45.186;5.720;2023-05-23T00:52:55;99033.88;;;17.29;nan
52975;BME280;38839;45.186;5.720;2023-05-23T00:55:23;99036.63;;;17.26;nan
52975;BME280;38839;45.186;5.720;2023-05-23T00:57:49;99034.97;;;17.22;nan
52975;BME280;38839;45.186;5.720;2023-05-23T01:00:16;99050.00;;;17.20;nan
52975;BME280;38839;45.186;5.720;2023-05-23T01:02:45;99043.00;;;17.19;nan
52975;BME280;38839;45.186;5.720;2023-05-23T01:05:13;99036.09;;;17.15;nan
52975;BME280;38839;45.186;5.720;2023-05-23T01:07:45;99029.09;;;17.14;nan
52975;BME280;38839;45.186;5.720;2023-05-23T01:10:11;99027.59;;;17.07;nan
52975;BME280;38839;45.186;5.720;2023-05-23T01:15:41;99034.06;;;16.97;nan
52975;BME280;38839;45.186;5.720;2023-05-23T01:18:15;99038.41;;;16.98;nan
52975;BME280;38839;45.186;5.720;2023-05-23T01:20:54;99051.88;;;16.88;nan
52975;BME280;38839;45.186;5.720;2023-05-23T01:28:54;99046.09;;;16.76;nan
52975;BME280;38839;45.186;5.720;2023-05-23T01:31:23;99052.34;;;16.72;nan
52975;BME280;38839;45.186;5.720;2023-05-23T01:33:52;99041.03;;;16.68;nan
52975;BME280;38839;45.186;5.720;2023-05-23T01:36:18;99053.28;;;16.69;nan
52975;BME280;38839;45.186;5.720;2023-05-23T01:38:44;99054.06;;;16.73;nan
52975;BME280;38839;45.186;5.720;2023-05-23T01:41:09;99048.78;;;16.73;nan
52975;BME280;38839;45.186;5.720;2023-05-23T01:43:35;99051.22;;;16.80;nan
52975;BME280;38839;45.186;5.720;2023-05-23T01:46:00;99053.88;;;16.79;nan
52975;BME280;38839;45.186;5.720;2023-05-23T01:48:28;99048.66;;;16.77;nan
52975;BME280;38839;45.186;5.720;2023-05-23T01:50:54;99038.22;;;16.74;nan
52975;BME280;38839;45.186;5.720;2023-05-23T01:53:22;99038.19;;;16.76;nan
52975;BME280;38839;45.186;5.720;2023-05-23T01:55:47;99046.13;;;16.74;nan
52975;BME280;38839;45.186;5.720;2023-05-23T01:58:13;99037.59;;;16.66;nan
52975;BME280;38839;45.186;5.720;2023-05-23T02:00:39;99034.03;;;16.67;nan
52975;BME280;38839;45.186;5.720;2023-05-23T02:03:04;99032.31;;;16.66;nan
52975;BME280;38839;45.186;5.720;2023-05-23T02:05:30;99028.09;;;16.60;nan
52975;BME280;38839;45.186;5.720;2023-05-23T02:07:55;99023.78;;;16.58;nan
52975;BME280;38839;45.186;5.720;2023-05-23T02:10:21;99030.72;;;16.60;nan
52975;BME280;38839;45.186;5.720;2023-05-23T02:12:47;99027.22;;;16.60;nan
52975;BME280;38839;45.186;5.720;2023-05-23T02:15:12;99025.50;;;16.59;nan
52975;BME280;38839;45.186;5.720;2023-05-23T02:17:37;99023.69;;;16.61;nan
52975;BME280;38839;45.186;5.720;2023-05-23T02:20:04;99026.22;;;16.64;nan
52975;BME280;38839;45.186;5.720;2023-05-23T02:22:30;99026.13;;;16.67;nan
52975;BME280;38839;45.186;5.720;2023-05-23T02:24:55;99035.66;;;16.71;nan
52975;BME280;38839;45.186;5.720;2023-05-23T02:27:21;99036.63;;;16.68;nan
52975;BME280;38839;45.186;5.720;2023-05-23T02:29:46;99039.22;;;16.70;nan
52975;BME280;38839;45.186;5.720;2023-05-23T02:32:12;99038.28;;;16.71;nan
52975;BME280;38839;45.186;5.720;2023-05-23T02:34:37;99029.56;;;16.69;nan
52975;BME280;38839;45.186;5.720;2023-05-23T02:37:03;99037.47;;;16.69;nan
52975;BME280;38839;45.186;5.720;2023-05-23T02:39:28;99038.41;;;16.68;nan
52975;BME280;38839;45.186;5.720;2023-05-23T02:41:53;99027.81;;;16.69;nan
52975;BME280;38839;45.186;5.720;2023-05-23T02:44:19;99035.47;;;16.77;nan
52975;BME280;38839;45.186;5.720;2023-05-23T02:46:44;99033.63;;;16.82;nan
52975;BME280;38839;45.186;5.720;2023-05-23T02:49:10;99044.38;;;16.73;nan
52975;BME280;38839;45.186;5.720;2023-05-23T02:51:36;99031.03;;;16.79;nan
52975;BME280;38839;45.186;5.720;2023-05-23T02:54:01;99041.41;;;16.85;nan
52975;BME280;38839;45.186;5.720;2023-05-23T02:56:27;99036.06;;;16.88;nan
52975;BME280;38839;45.186;5.720;2023-05-23T02:58:52;99037.69;;;16.93;nan
52975;BME280;38839;45.186;5.720;2023-05-23T03:01:17;99039.59;;;16.87;nan
52975;BME280;38839;45.186;5.720;2023-05-23T03:03:44;99037.03;;;16.86;nan
52975;BME280;38839;45.186;5.720;2023-05-23T03:06:09;99037.06;;;16.84;nan
52975;BME280;38839;45.186;5.720;2023-05-23T03:08:38;99030.13;;;16.80;nan
52975;BME280;38839;45.186;5.720;2023-05-23T03:11:04;99033.66;;;16.79;nan
52975;BME280;38839;45.186;5.720;2023-05-23T03:13:29;99033.84;;;16.73;nan
52975;BME280;38839;45.186;5.720;2023-05-23T03:15:55;99042.47;;;16.78;nan
52975;BME280;38839;45.186;5.720;2023-05-23T03:18:20;99039.03;;;16.76;nan
52975;BME280;38839;45.186;5.720;2023-05-23T03:20:46;99042.47;;;16.78;nan
52975;BME280;38839;45.186;5.720;2023-05-23T03:23:11;99046.31;;;16.68;nan
52975;BME280;38839;45.186;5.720;2023-05-23T03:25:36;99043.47;;;16.74;nan
52975;BME280;38839;45.186;5.720;2023-05-23T03:28:02;99042.47;;;16.78;nan
52975;BME280;38839;45.186;5.720;2023-05-23T03:30:27;99040.66;;;16.80;nan
52975;BME280;38839;45.186;5.720;2023-05-23T03:32:52;99039.81;;;16.80;nan
52975;BME280;38839;45.186;5.720;2023-05-23T03:35:18;99047.50;;;16.87;nan
52975;BME280;38839;45.186;5.720;2023-05-23T03:37:43;99050.44;;;16.77;nan
52975;BME280;38839;45.186;5.720;2023-05-23T03:40:09;99039.94;;;16.75;nan
52975;BME280;38839;45.186;5.720;2023-05-23T03:42:35;99047.84;;;16.75;nan
52975;BME280;38839;45.186;5.720;2023-05-23T03:45:01;99040.75;;;16.77;nan
52975;BME280;38839;45.186;5.720;2023-05-23T03:47:26;99045.94;;;16.80;nan
52975;BME280;38839;45.186;5.720;2023-05-23T03:49:51;99045.13;;;16.78;nan
52975;BME280;38839;45.186;5.720;2023-05-23T03:52:17;99046.09;;;16.76;nan
52975;BME280;38839;45.186;5.720;2023-05-23T03:54:42;99052.22;;;16.76;nan
52975;BME280;38839;45.186;5.720;2023-05-23T03:57:08;99053.88;;;16.79;nan
52975;BME280;38839;45.186;5.720;2023-05-23T03:59:33;99051.28;;;16.77;nan
52975;BME280;38839;45.186;5.720;2023-05-23T04:01:59;99052.34;;;16.72;nan
52975;BME280;38839;45.186;5.720;2023-05-23T04:04:26;99049.75;;;16.70;nan
52975;BME280;38839;45.186;5.720;2023-05-23T04:06:51;99043.66;;;16.68;nan
52975;BME280;38839;45.186;5.720;2023-05-23T04:09:17;99041.09;;;16.65;nan
52975;BME280;38839;45.186;5.720;2023-05-23T04:11:42;99044.56;;;16.67;nan
52975;BME280;38839;45.186;5.720;2023-05-23T04:14:08;99036.72;;;16.65;nan
52975;BME280;38839;45.186;5.720;2023-05-23T04:16:34;99049.16;;;16.60;nan
52975;BME280;38839;45.186;5.720;2023-05-23T04:19:00;99053.56;;;16.60;nan
52975;BME280;38839;45.186;5.720;2023-05-23T04:21:26;99043.09;;;16.57;nan
52975;BME280;38839;45.186;5.720;2023-05-23T04:23:52;99043.22;;;16.54;nan
52975;BME280;38839;45.186;5.720;2023-05-23T04:26:17;99046.53;;;16.60;nan
52975;BME280;38839;45.186;5.720;2023-05-23T04:28:42;99045.63;;;16.61;nan
52975;BME280;38839;45.186;5.720;2023-05-23T04:31:10;99050.00;;;16.61;nan
52975;BME280;38839;45.186;5.720;2023-05-23T04:33:36;99053.28;;;16.69;nan
52975;BME280;38839;45.186;5.720;2023-05-23T04:36:02;99053.28;;;16.69;nan
52975;BME280;38839;45.186;5.720;2023-05-23T04:38:27;99047.97;;;16.70;nan
52975;BME280;38839;45.186;5.720;2023-05-23T04:40:53;99058.28;;;16.78;nan
52975;BME280;38839;45.186;5.720;2023-05-23T04:43:18;99058.91;;;16.88;nan
52975;BME280;38839;45.186;5.720;2023-05-23T04:45:45;99061.25;;;16.97;nan
52975;BME280;38839;45.186;5.720;2023-05-23T04:48:10;99060.91;;;17.08;nan
52975;BME280;38839;45.186;5.720;2023-05-23T04:50:37;99065.81;;;17.20;nan
52975;BME280;38839;45.186;5.720;2023-05-23T04:53:04;99067.44;;;17.24;nan
52975;BME280;38839;45.186;5.720;2023-05-23T04:55:30;99059.44;;;17.27;nan
52975;BME280;38839;45.186;5.720;2023-05-23T04:57:56;99062.94;;;17.28;nan
52975;BME280;38839;45.186;5.720;2023-05-23T05:00:21;99070.69;;;17.33;nan
52975;BME280;38839;45.186;5.720;2023-05-23T05:02:47;99065.41;;;17.33;nan
52975;BME280;38839;45.186;5.720;2023-05-23T05:05:13;99062.25;;;17.49;nan
52975;BME280;38839;45.186;5.720;2023-05-23T05:07:38;99066.44;;;17.55;nan
52975;BME280;38839;45.186;5.720;2023-05-23T05:10:05;99063.00;;;17.53;nan
52975;BME280;38839;45.186;5.720;2023-05-23T05:12:30;99060.66;;;17.44;nan
52975;BME280;38839;45.186;5.720;2023-05-23T05:14:56;99054.03;;;17.59;nan
52975;BME280;38839;45.186;5.720;2023-05-23T05:17:21;99065.63;;;17.53;nan
52975;BME280;38839;45.186;5.720;2023-05-23T05:19:46;99062.28;;;17.48;nan
52975;BME280;38839;45.186;5.720;2023-05-23T05:22:12;99067.47;;;17.51;nan
52975;BME280;38839;45.186;5.720;2023-05-23T05:24:37;99074.06;;;17.64;nan
52975;BME280;38839;45.186;5.720;2023-05-23T05:27:04;99069.59;;;17.66;nan
52975;BME280;38839;45.186;5.720;2023-05-23T05:29:30;99066.75;;;17.73;nan
52975;BME280;38839;45.186;5.720;2023-05-23T05:31:57;99062.88;;;17.84;nan
52975;BME280;38839;45.186;5.720;2023-05-23T05:34:25;99064.78;;;17.79;nan
52975;BME280;38839;45.186;5.720;2023-05-23T05:36:51;99061.53;;;17.71;nan
52975;BME280;38839;45.186;5.720;2023-05-23T05:39:21;99069.19;;;17.52;nan
52975;BME280;38839;45.186;5.720;2023-05-23T05:41:47;99066.44;;;17.55;nan
52975;BME280;38839;45.186;5.720;2023-05-23T05:44:12;99070.78;;;17.58;nan
52975;BME280;38839;45.186;5.720;2023-05-23T05:46:38;99067.81;;;17.94;nan
52975;BME280;38839;45.186;5.720;2023-05-23T05:49:03;99068.25;;;18.06;nan
52975;BME280;38839;45.186;5.720;2023-05-23T05:51:28;99062.06;;;18.07;nan
52975;BME280;38839;45.186;5.720;2023-05-23T05:53:54;99060.13;;;18.13;nan
52975;BME280;38839;45.186;5.720;2023-05-23T05:56:19;99057.66;;;18.80;nan
52975;BME280;38839;45.186;5.720;2023-05-23T05:58:46;99055.38;;;19.39;nan
52975;BME280;38839;45.186;5.720;2023-05-23T06:01:12;99060.13;;;19.30;nan
52975;BME280;38839;45.186;5.720;2023-05-23T06:03:38;99057.53;;;19.07;nan
52975;BME280;38839;45.186;5.720;2023-05-23T06:06:03;99064.50;;;19.09;nan
52975;BME280;38839;45.186;5.720;2023-05-23T06:08:30;99056.38;;;19.14;nan
52975;BME280;38839;45.186;5.720;2023-05-23T06:10:55;99064.16;;;19.61;nan
52975;BME280;38839;45.186;5.720;2023-05-23T06:13:21;99061.69;;;21.72;nan
52975;BME280;38839;45.186;5.720;2023-05-23T06:15:46;99061.84;;;22.38;nan
52975;BME280;38839;45.186;5.720;2023-05-23T06:18:11;99067.22;;;21.30;nan
52975;BME280;38839;45.186;5.720;2023-05-23T06:20:37;99065.81;;;20.66;nan
52975;BME280;38839;45.186;5.720;2023-05-23T06:23:02;99068.41;;;20.28;nan
52975;BME280;38839;45.186;5.720;2023-05-23T06:25:30;99063.69;;;20.15;nan
52975;BME280;38839;45.186;5.720;2023-05-23T06:27:55;99058.13;;;20.21;nan
52975;BME280;38839;45.186;5.720;2023-05-23T06:30:20;99056.47;;;20.18;nan
52975;BME280;38839;45.186;5.720;2023-05-23T06:32:47;99063.94;;;20.29;nan
52975;BME280;38839;45.186;5.720;2023-05-23T06:35:12;99051.34;;;20.34;nan
52975;BME280;38839;45.186;5.720;2023-05-23T06:37:38;99062.56;;;20.20;nan
52975;BME280;38839;45.186;5.720;2023-05-23T06:40:07;99064.59;;;20.34;nan
52975;BME280;38839;45.186;5.720;2023-05-23T06:42:33;99061.56;;;20.23;nan
52975;BME280;38839;45.186;5.720;2023-05-23T06:44:58;99067.84;;;20.41;nan
52975;BME280;38839;45.186;5.720;2023-05-23T06:47:24;99065.78;;;20.47;nan
52975;BME280;38839;45.186;5.720;2023-05-23T06:49:49;99068.28;;;20.50;nan
52975;BME280;38839;45.186;5.720;2023-05-23T06:52:15;99072.06;;;20.65;nan
52975;BME280;38839;45.186;5.720;2023-05-23T06:54:40;99055.97;;;20.49;nan
52975;BME280;38839;45.186;5.720;2023-05-23T06:57:06;99070.94;;;20.30;nan
52975;BME280;38839;45.186;5.720;2023-05-23T06:59:31;99067.22;;;20.34;nan
52975;BME280;38839;45.186;5.720;2023-05-23T07:01:56;99062.59;;;20.39;nan
52975;BME280;38839;45.186;5.720;2023-05-23T07:04:22;99067.06;;;20.39;nan
52975;BME280;38839;45.186;5.720;2023-05-23T07:06:47;99066.78;;;20.45;nan
52975;BME280;38839;45.186;5.720;2023-05-23T07:09:12;99068.53;;;20.44;nan
52975;BME280;38839;45.186;5.720;2023-05-23T07:11:38;99064.25;;;20.42;nan
52975;BME280;38839;45.186;5.720;2023-05-23T07:14:05;99063.53;;;20.38;nan
52975;BME280;38839;45.186;5.720;2023-05-23T07:16:31;99064.31;;;20.40;nan
52975;BME280;38839;45.186;5.720;2023-05-23T07:18:57;99061.53;;;20.43;nan
52975;BME280;38839;45.186;5.720;2023-05-23T07:21:22;99063.09;;;20.68;nan
52975;BME280;38839;45.186;5.720;2023-05-23T07:23:47;99061.38;;;21.78;nan
52975;BME280;38839;45.186;5.720;2023-05-23T07:26:13;99060.09;;;21.86;nan
52975;BME280;38839;45.186;5.720;2023-05-23T07:28:38;99051.97;;;22.23;nan
52975;BME280;38839;45.186;5.720;2023-05-23T07:31:04;99049.59;;;22.52;nan
52975;BME280;38839;45.186;5.720;2023-05-23T07:33:29;99052.25;;;22.85;nan
52975;BME280;38839;45.186;5.720;2023-05-23T07:35:55;99054.13;;;22.83;nan
52975;BME280;38839;45.186;5.720;2023-05-23T07:38:20;99048.72;;;22.84;nan
52975;BME280;38839;45.186;5.720;2023-05-23T07:40:46;99051.91;;;23.39;nan
52975;BME280;38839;45.186;5.720;2023-05-23T07:43:11;99038.72;;;23.67;nan
52975;BME280;38839;45.186;5.720;2023-05-23T07:45:37;99041.19;;;24.01;nan
52975;BME280;38839;45.186;5.720;2023-05-23T07:48:02;99038.28;;;24.34;nan
52975;BME280;38839;45.186;5.720;2023-05-23T07:50:27;99038.69;;;24.57;nan
52975;BME280;38839;45.186;5.720;2023-05-23T07:52:53;99043.25;;;24.69;nan
52975;BME280;38839;45.186;5.720;2023-05-23T07:55:19;99040.22;;;24.61;nan
52975;BME280;38839;45.186;5.720;2023-05-23T07:57:45;99039.19;;;24.63;nan
52975;BME280;38839;45.186;5.720;2023-05-23T08:00:11;99040.44;;;24.99;nan
52975;BME280;38839;45.186;5.720;2023-05-23T08:02:36;99022.44;;;25.03;nan
52975;BME280;38839;45.186;5.720;2023-05-23T08:05:02;99029.13;;;24.96;nan
52975;BME280;38839;45.186;5.720;2023-05-23T08:07:28;99030.22;;;25.06;nan
52975;BME280;38839;45.186;5.720;2023-05-23T08:09:53;99026.41;;;25.10;nan
52975;BME280;38839;45.186;5.720;2023-05-23T08:12:18;99019.84;;;25.43;nan
52975;BME280;38839;45.186;5.720;2023-05-23T08:14:44;99027.09;;;25.81;nan
52975;BME280;38839;45.186;5.720;2023-05-23T08:17:11;99021.94;;;26.05;nan
52975;BME280;38839;45.186;5.720;2023-05-23T08:19:36;99015.28;;;26.10;nan
52975;BME280;38839;45.186;5.720;2023-05-23T08:22:02;99013.69;;;26.21;nan
52975;BME280;38839;45.186;5.720;2023-05-23T08:24:28;99006.16;;;26.52;nan
52975;BME280;38839;45.186;5.720;2023-05-23T08:26:54;99013.47;;;26.62;nan
52975;BME280;38839;45.186;5.720;2023-05-23T08:29:20;99006.84;;;26.29;nan
52975;BME280;38839;45.186;5.720;2023-05-23T08:31:46;99001.25;;;26.71;nan
52975;BME280;38839;45.186;5.720;2023-05-23T08:34:11;99005.56;;;26.98;nan
52975;BME280;38839;45.186;5.720;2023-05-23T08:36:38;99009.13;;;26.85;nan
52975;BME280;38839;45.186;5.720;2023-05-23T08:39:04;99011.25;;;27.17;nan
52975;BME280;38839;45.186;5.720;2023-05-23T08:41:30;99007.03;;;27.39;nan
52975;BME280;38839;45.186;5.720;2023-05-23T08:43:58;99002.84;;;27.10;nan
52975;BME280;38839;45.186;5.720;2023-05-23T08:46:24;99006.19;;;27.74;nan
52975;BME280;38839;45.186;5.720;2023-05-23T08:48:51;98998.63;;;30.63;nan
52975;BME280;38839;45.186;5.720;2023-05-23T08:51:17;99002.88;;;32.60;nan
52975;BME280;38839;45.186;5.720;2023-05-23T08:53:45;99002.38;;;31.51;nan
52975;BME280;38839;45.186;5.720;2023-05-23T08:56:12;99002.22;;;29.58;nan
52975;BME280;38839;45.186;5.720;2023-05-23T08:58:38;98997.03;;;28.91;nan
52975;BME280;38839;45.186;5.720;2023-05-23T09:01:06;98994.97;;;29.38;nan
52975;BME280;38839;45.186;5.720;2023-05-23T09:03:33;98991.44;;;29.91;nan
52975;BME280;38839;45.186;5.720;2023-05-23T09:05:58;98993.56;;;29.76;nan
52975;BME280;38839;45.186;5.720;2023-05-23T09:08:23;98990.22;;;28.19;nan
52975;BME280;38839;45.186;5.720;2023-05-23T09:10:49;98988.22;;;27.27;nan
52975;BME280;38839;45.186;5.720;2023-05-23T09:13:15;98979.69;;;26.85;nan
52975;BME280;38839;45.186;5.720;2023-05-23T09:16:01;98988.84;;;26.44;nan
52975;BME280;38839;45.186;5.720;2023-05-23T09:18:33;98989.69;;;26.45;nan
52975;BME280;38839;45.186;5.720;2023-05-23T09:21:00;98987.03;;;26.71;nan
52975;BME280;38839;45.186;5.720;2023-05-23T09:23:29;98981.34;;;26.75;nan
52975;BME280;38839;45.186;5.720;2023-05-23T09:25:54;98979.59;;;26.74;nan
52975;BME280;38839;45.186;5.720;2023-05-23T09:28:20;98977.47;;;26.79;nan
52975;BME280;38839;45.186;5.720;2023-05-23T09:30:45;98978.38;;;26.28;nan
52975;BME280;38839;45.186;5.720;2023-05-23T09:33:13;98972.41;;;26.38;nan
52975;BME280;38839;45.186;5.720;2023-05-23T09:35:43;98971.50;;;25.86;nan
52975;BME280;38839;45.186;5.720;2023-05-23T09:38:08;98969.84;;;25.45;nan
52975;BME280;38839;45.186;5.720;2023-05-23T09:40:34;98966.28;;;25.04;nan
52975;BME280;38839;45.186;5.720;2023-05-23T09:43:03;98971.66;;;25.44;nan
52975;BME280;38839;45.186;5.720;2023-05-23T09:45:30;98969.25;;;25.54;nan
52975;BME280;38839;45.186;5.720;2023-05-23T09:47:56;98965.94;;;24.96;nan
52975;BME280;38839;45.186;5.720;2023-05-23T09:50:23;98964.13;;;24.69;nan
52975;BME280;38839;45.186;5.720;2023-05-23T09:52:48;98958.28;;;24.48;nan
52975;BME280;38839;45.186;5.720;2023-05-23T09:55:15;98954.47;;;24.38;nan
52975;BME280;38839;45.186;5.720;2023-05-23T09:57:41;98949.44;;;24.34;nan
52975;BME280;38839;45.186;5.720;2023-05-23T10:00:08;98964.78;;;24.59;nan
52975;BME280;38839;45.186;5.720;2023-05-23T10:07:58;98964.41;;;24.07;nan
52975;BME280;38839;45.186;5.720;2023-05-23T10:10:25;98959.28;;;24.19;nan
52975;BME280;38839;45.186;5.720;2023-05-23T10:12:55;98959.63;;;24.41;nan
52975;BME280;38839;45.186;5.720;2023-05-23T10:15:26;98961.91;;;24.47;nan
52975;BME280;38839;45.186;5.720;2023-05-23T10:18:15;98948.16;;;24.12;nan
52975;BME280;38839;45.186;5.720;2023-05-23T10:20:46;98962.78;;;24.05;nan
52975;BME280;38839;45.186;5.720;2023-05-23T10:23:14;98956.13;;;23.98;nan
52975;BME280;38839;45.186;5.720;2023-05-23T10:25:41;98955.19;;;23.68;nan
52975;BME280;38839;45.186;5.720;2023-05-23T10:28:07;98958.97;;;23.64;nan
52975;BME280;38839;45.186;5.720;2023-05-23T10:30:33;98945.91;;;23.76;nan
52975;BME280;38839;45.186;5.720;2023-05-23T10:32:59;98955.06;;;23.56;nan
52975;BME280;38839;45.186;5.720;2023-05-23T10:35:40;98963.09;;;23.40;nan
52975;BME280;38839;45.186;5.720;2023-05-23T10:38:18;98940.69;;;23.44;nan
52975;BME280;38839;45.186;5.720;2023-05-23T10:41:08;98954.34;;;23.38;nan
52975;BME280;38839;45.186;5.720;2023-05-23T10:46:18;98949.06;;;23.82;nan
52975;BME280;38839;45.186;5.720;2023-05-23T10:48:44;98943.19;;;23.61;nan
52975;BME280;38839;45.186;5.720;2023-05-23T10:51:11;98937.34;;;23.85;nan
52975;BME280;38839;45.186;5.720;2023-05-23T10:53:40;98953.19;;;24.02;nan
52975;BME280;38839;45.186;5.720;2023-05-23T10:56:07;98945.25;;;23.86;nan
52975;BME280;38839;45.186;5.720;2023-05-23T10:58:34;98933.00;;;23.84;nan
52975;BME280;38839;45.186;5.720;2023-05-23T11:01:04;98939.84;;;23.88;nan
52975;BME280;38839;45.186;5.720;2023-05-23T11:09:09;98926.56;;;23.27;nan
52975;BME280;38839;45.186;5.720;2023-05-23T11:14:19;98932.59;;;23.15;nan
52975;BME280;38839;45.186;5.720;2023-05-23T11:16:45;98917.47;;;23.01;nan
52975;BME280;38839;45.186;5.720;2023-05-23T11:21:45;98910.38;;;23.16;nan
52975;BME280;38839;45.186;5.720;2023-05-23T11:24:13;98912.28;;;23.14;nan
52975;BME280;38839;45.186;5.720;2023-05-23T11:26:38;98908.50;;;23.18;nan
52975;BME280;38839;45.186;5.720;2023-05-23T11:29:08;98915.38;;;23.37;nan
52975;BME280;38839;45.186;5.720;2023-05-23T11:31:39;98915.31;;;23.38;nan
52975;BME280;38839;45.186;5.720;2023-05-23T11:34:05;98911.00;;;23.36;nan
52975;BME280;38839;45.186;5.720;2023-05-23T11:36:31;98908.69;;;23.29;nan
52975;BME280;38839;45.186;5.720;2023-05-23T11:39:01;98914.63;;;23.35;nan
52975;BME280;38839;45.186;5.720;2023-05-23T11:41:28;98908.28;;;23.21;nan
52975;BME280;38839;45.186;5.720;2023-05-23T11:43:54;98909.63;;;23.14;nan
52975;BME280;38839;45.186;5.720;2023-05-23T11:46:19;98909.69;;;23.13;nan
52975;BME280;38839;45.186;5.720;2023-05-23T11:48:46;98911.09;;;23.04;nan
52975;BME280;38839;45.186;5.720;2023-05-23T11:51:12;98897.78;;;23.04;nan
52975;BME280;38839;45.186;5.720;2023-05-23T11:53:37;98899.81;;;22.99;nan
52975;BME280;38839;45.186;5.720;2023-05-23T11:56:05;98895.81;;;23.07;nan
52975;BME280;38839;45.186;5.720;2023-05-23T11:58:35;98903.94;;;23.20;nan
52975;BME280;38839;45.186;5.720;2023-05-23T12:01:06;98891.00;;;23.14;nan
52975;BME280;38839;45.186;5.720;2023-05-23T12:03:45;98898.69;;;23.19;nan
52975;BME280;38839;45.186;5.720;2023-05-23T12:06:15;98888.09;;;23.03;nan
52975;BME280;38839;45.186;5.720;2023-05-23T12:08:42;98890.66;;;22.88;nan
52975;BME280;38839;45.186;5.720;2023-05-23T12:11:07;98889.88;;;22.86;nan
52975;BME280;38839;45.186;5.720;2023-05-23T12:13:33;98902.69;;;22.64;nan
52975;BME280;38839;45.186;5.720;2023-05-23T12:16:00;98899.13;;;22.65;nan
52975;BME280;38839;45.186;5.720;2023-05-23T12:18:30;98895.50;;;22.66;nan
52975;BME280;38839;45.186;5.720;2023-05-23T12:21:00;98877.72;;;22.82;nan
52975;BME280;38839;45.186;5.720;2023-05-23T12:23:27;98881.00;;;22.72;nan
52975;BME280;38839;45.186;5.720;2023-05-23T12:25:54;98878.00;;;22.62;nan
52975;BME280;38839;45.186;5.720;2023-05-23T12:28:21;98890.28;;;22.48;nan
52975;BME280;38839;45.186;5.720;2023-05-23T12:30:58;98890.44;;;22.45;nan
52975;BME280;38839;45.186;5.720;2023-05-23T12:33:24;98884.34;;;22.75;nan
52975;BME280;38839;45.186;5.720;2023-05-23T12:35:49;98871.22;;;22.72;nan
52975;BME280;38839;45.186;5.720;2023-05-23T12:38:15;98875.19;;;22.65;nan
52975;BME280;38839;45.186;5.720;2023-05-23T12:40:41;98870.97;;;22.61;nan
52975;BME280;38839;45.186;5.720;2023-05-23T12:43:08;98879.88;;;22.60;nan
52975;BME280;38839;45.186;5.720;2023-05-23T12:45:35;98869.25;;;22.60;nan
52975;BME280;38839;45.186;5.720;2023-05-23T12:48:04;98880.31;;;22.68;nan
52975;BME280;38839;45.186;5.720;2023-05-23T12:50:31;98867.72;;;22.56;nan
52975;BME280;38839;45.186;5.720;2023-05-23T12:52:57;98873.16;;;22.38;nan
52975;BME280;38839;45.186;5.720;2023-05-23T12:55:23;98885.06;;;22.47;nan
52975;BME280;38839;45.186;5.720;2023-05-23T12:57:48;98868.50;;;22.26;nan
52975;BME280;38839;45.186;5.720;2023-05-23T13:00:13;98883.69;;;22.24;nan
52975;BME280;38839;45.186;5.720;2023-05-23T13:02:39;98869.09;;;22.15;nan
52975;BME280;38839;45.186;5.720;2023-05-23T13:05:05;98855.56;;;22.36;nan
52975;BME280;38839;45.186;5.720;2023-05-23T13:07:31;98858.00;;;22.23;nan
52975;BME280;38839;45.186;5.720;2023-05-23T13:09:56;98859.31;;;22.16;nan
52975;BME280;38839;45.186;5.720;2023-05-23T13:12:22;98853.13;;;22.15;nan
52975;BME280;38839;45.186;5.720;2023-05-23T13:14:48;98863.44;;;22.53;nan
52975;BME280;38839;45.186;5.720;2023-05-23T13:17:14;98839.44;;;22.39;nan
52975;BME280;38839;45.186;5.720;2023-05-23T13:19:40;98850.56;;;22.61;nan
52975;BME280;38839;45.186;5.720;2023-05-23T13:22:05;98843.41;;;22.78;nan
52975;BME280;38839;45.186;5.720;2023-05-23T13:24:37;98859.28;;;22.79;nan
52975;BME280;38839;45.186;5.720;2023-05-23T13:27:04;98853.47;;;22.73;nan
52975;BME280;38839;45.186;5.720;2023-05-23T13:29:30;98851.00;;;22.54;nan
52975;BME280;38839;45.186;5.720;2023-05-23T13:31:56;98830.34;;;22.59;nan
52975;BME280;38839;45.186;5.720;2023-05-23T13:34:21;98854.78;;;22.49;nan
52975;BME280;38839;45.186;5.720;2023-05-23T13:36:47;98837.81;;;22.52;nan
52975;BME280;38839;45.186;5.720;2023-05-23T13:39:12;98835.16;;;22.36;nan
52975;BME280;38839;45.186;5.720;2023-05-23T13:41:38;98832.56;;;22.50;nan
52975;BME280;38839;45.186;5.720;2023-05-23T13:44:03;98836.72;;;22.40;nan
52975;BME280;38839;45.186;5.720;2023-05-23T13:46:29;98840.91;;;22.44;nan